createdAt,value
2017-11-23T00:00:42.203Z,6.3
2017-11-23T00:02:00.881Z,6.2
2017-11-23T00:03:19.583Z,6.3
2017-11-23T00:04:38.267Z,6.2
2017-11-23T00:05:56.903Z,6.1
2017-11-23T00:07:15.545Z,6.3
2017-11-23T00:08:34.219Z,6.2
2017-11-23T00:09:52.896Z,6.2
2017-11-23T00:11:11.541Z,6.2
2017-11-23T00:12:30.197Z,6.2
2017-11-23T00:13:48.852Z,6.2
2017-11-23T00:15:07.528Z,6
2017-11-23T00:16:26.206Z,5.9
2017-11-23T00:17:44.902Z,5.9
2017-11-23T00:19:03.575Z,6
2017-11-23T00:20:22.254Z,6
2017-11-23T00:21:40.903Z,6
2017-11-23T00:22:59.557Z,6
2017-11-23T00:24:18.216Z,6
2017-11-23T00:25:36.870Z,6
2017-11-23T00:26:55.516Z,6
2017-11-23T00:28:14.164Z,6
2017-11-23T00:29:32.840Z,6
2017-11-23T00:30:51.491Z,5.9
2017-11-23T00:32:10.166Z,6
2017-11-23T00:33:28.819Z,6.1
2017-11-23T00:34:47.505Z,6.1
2017-11-23T00:36:06.143Z,6
2017-11-23T00:37:24.787Z,6
2017-11-23T00:38:43.438Z,6
2017-11-23T00:40:02.108Z,5.9
2017-11-23T00:41:20.746Z,5.9
2017-11-23T00:42:39.400Z,5.8
2017-11-23T00:43:58.069Z,6
2017-11-23T00:45:16.732Z,6.1
2017-11-23T00:46:35.437Z,6.1
2017-11-23T00:47:54.081Z,6.1
2017-11-23T00:49:12.735Z,6.1
2017-11-23T00:50:31.391Z,6.1
2017-11-23T00:51:50.069Z,6.1
2017-11-23T00:53:08.717Z,6
2017-11-23T00:54:27.370Z,5.9
2017-11-23T00:55:46.041Z,5.8
2017-11-23T00:57:04.686Z,5.6
2017-11-23T00:58:23.340Z,5.7
2017-11-23T00:59:41.999Z,5.6
2017-11-23T01:01:00.663Z,5.8
2017-11-23T01:02:19.305Z,5.7
2017-11-23T01:03:37.991Z,5.7
2017-11-23T01:04:56.641Z,5.7
2017-11-23T01:06:15.320Z,5.7
2017-11-23T01:07:33.961Z,5.6
2017-11-23T01:08:52.623Z,5.5
2017-11-23T01:10:11.274Z,5.4
2017-11-23T01:11:29.961Z,5.3
2017-11-23T01:12:48.614Z,5.3
2017-11-23T01:14:07.335Z,5.3
2017-11-23T01:15:26.036Z,5.4
2017-11-23T01:16:44.710Z,5.3
2017-11-23T01:18:03.361Z,5.2
2017-11-23T01:19:22.009Z,5.2
2017-11-23T01:20:40.670Z,5.4
2017-11-23T01:21:59.330Z,5.3
2017-11-23T01:23:17.975Z,5.1
2017-11-23T01:24:36.630Z,5.1
2017-11-23T01:25:55.331Z,4.9
2017-11-23T01:27:14.042Z,4.9
2017-11-23T01:28:32.718Z,5
2017-11-23T01:29:51.367Z,4.9
2017-11-23T01:31:10.005Z,5
2017-11-23T01:32:28.699Z,4.7
2017-11-23T01:33:47.380Z,4.6
2017-11-23T01:35:06.072Z,4.5
2017-11-23T01:36:24.718Z,4.4
2017-11-23T01:37:43.390Z,4.5
2017-11-23T01:39:02.094Z,4.4
2017-11-23T01:40:20.786Z,4.3
2017-11-23T01:41:39.435Z,4.2
2017-11-23T01:42:58.117Z,4.1
2017-11-23T01:44:16.758Z,4.3
2017-11-23T01:45:35.401Z,4.3
2017-11-23T01:46:54.057Z,4.4
2017-11-23T01:48:12.735Z,4.7
2017-11-23T01:49:31.385Z,4.5
2017-11-23T01:50:50.031Z,4.4
2017-11-23T01:52:08.671Z,4.6
2017-11-23T01:53:27.348Z,4.5
2017-11-23T01:54:45.995Z,4.3
2017-11-23T01:56:04.641Z,4.4
2017-11-23T01:57:23.322Z,4.6
2017-11-23T01:58:41.994Z,4.6
2017-11-23T02:00:00.668Z,4.4
2017-11-23T02:01:19.339Z,4.2
2017-11-23T02:02:37.983Z,3.9
2017-11-23T02:03:56.684Z,3.8
2017-11-23T02:05:15.381Z,3.8
2017-11-23T02:06:34.039Z,3.7
2017-11-23T02:07:52.740Z,3.6
2017-11-23T02:09:11.400Z,3.8
2017-11-23T02:10:30.093Z,3.7
2017-11-23T02:11:48.747Z,3.6
2017-11-23T02:13:07.398Z,4.1
2017-11-23T02:14:26.112Z,4.2
2017-11-23T02:15:44.758Z,4.1
2017-11-23T02:17:03.411Z,4.2
2017-11-23T02:18:22.078Z,4.2
2017-11-23T02:19:40.785Z,4.4
2017-11-23T02:20:59.433Z,4.4
2017-11-23T02:22:18.081Z,4.6
2017-11-23T02:23:36.739Z,4.4
2017-11-23T02:24:55.396Z,4.2
2017-11-23T02:26:14.047Z,4.1
2017-11-23T02:27:32.724Z,3.9
2017-11-23T02:28:51.377Z,3.7
2017-11-23T02:30:10.065Z,3.7
2017-11-23T02:31:28.715Z,3.6
2017-11-23T02:32:47.365Z,3.5
2017-11-23T02:34:06.066Z,3.4
2017-11-23T02:35:24.746Z,3.5
2017-11-23T02:36:43.400Z,3.4
2017-11-23T02:38:02.076Z,3.3
2017-11-23T02:39:20.728Z,3.2
2017-11-23T02:40:39.418Z,3.2
2017-11-23T02:41:58.117Z,3.2
2017-11-23T02:43:16.753Z,3.1
2017-11-23T02:44:35.484Z,3.1
2017-11-23T02:45:54.205Z,3.1
2017-11-23T02:47:12.853Z,3.1
2017-11-23T02:48:31.528Z,3.1
2017-11-23T02:49:50.168Z,3
2017-11-23T02:51:08.830Z,3
2017-11-23T02:52:27.492Z,2.9
2017-11-23T02:53:46.138Z,2.9
2017-11-23T02:55:04.797Z,2.8
2017-11-23T02:56:23.459Z,2.7
2017-11-23T02:57:42.175Z,2.7
2017-11-23T02:59:00.887Z,2.7
2017-11-23T03:00:19.536Z,2.6
2017-11-23T03:01:38.223Z,2.6
2017-11-23T03:02:56.911Z,2.6
2017-11-23T03:04:15.552Z,2.6
2017-11-23T03:05:34.195Z,2.5
2017-11-23T03:06:52.855Z,2.5
2017-11-23T03:08:11.552Z,2.5
2017-11-23T03:09:30.253Z,2.4
2017-11-23T03:10:48.913Z,2.4
2017-11-23T03:12:07.572Z,2.4
2017-11-23T03:13:26.261Z,2.4
2017-11-23T03:14:44.926Z,2.3
2017-11-23T03:16:03.579Z,2.2
2017-11-23T03:17:22.271Z,2.2
2017-11-23T03:18:40.969Z,2.1
2017-11-23T03:19:59.674Z,2.1
2017-11-23T03:21:18.320Z,2.1
2017-11-23T03:22:37.027Z,2.1
2017-11-23T03:23:55.696Z,2.2
2017-11-23T03:25:14.353Z,2.2
2017-11-23T03:26:32.999Z,2.2
2017-11-23T03:27:51.655Z,2.2
2017-11-23T03:29:10.369Z,2.2
2017-11-23T03:30:29.057Z,2.2
2017-11-23T03:31:47.785Z,2.3
2017-11-23T03:33:06.484Z,2.2
2017-11-23T03:34:25.176Z,2.2
2017-11-23T03:35:43.874Z,2.2
2017-11-23T03:37:02.547Z,2.2
2017-11-23T03:38:21.220Z,2.1
2017-11-23T03:39:39.865Z,2.1
2017-11-23T03:40:58.510Z,2
2017-11-23T03:42:17.200Z,2
2017-11-23T03:43:35.852Z,2
2017-11-23T03:44:54.501Z,2
2017-11-23T03:46:13.160Z,1.9
2017-11-23T03:47:31.837Z,1.9
2017-11-23T03:48:50.514Z,1.8
2017-11-23T03:50:09.217Z,1.8
2017-11-23T03:51:27.874Z,1.8
2017-11-23T03:52:46.538Z,1.7
2017-11-23T03:54:05.279Z,1.7
2017-11-23T03:55:23.927Z,1.7
2017-11-23T03:56:42.575Z,1.7
2017-11-23T03:58:01.226Z,1.6
2017-11-23T03:59:19.935Z,1.7
2017-11-23T04:00:38.630Z,1.6
2017-11-23T04:01:57.273Z,1.6
2017-11-23T04:03:15.930Z,1.7
2017-11-23T04:04:34.611Z,1.7
2017-11-23T04:05:53.255Z,1.7
2017-11-23T04:07:11.917Z,1.7
2017-11-23T04:08:30.614Z,1.7
2017-11-23T04:09:49.303Z,1.7
2017-11-23T04:11:07.989Z,1.7
2017-11-23T04:12:26.692Z,1.7
2017-11-23T04:13:45.344Z,1.6
2017-11-23T04:15:04.037Z,1.6
2017-11-23T04:16:22.690Z,1.6
2017-11-23T04:17:41.331Z,1.5
2017-11-23T04:19:00.032Z,1.5
2017-11-23T04:20:18.758Z,1.3
2017-11-23T04:21:37.452Z,1.3
2017-11-23T04:22:56.097Z,1.3
2017-11-23T04:24:14.744Z,1.3
2017-11-23T04:25:33.425Z,1.3
2017-11-23T04:26:52.099Z,1.6
2017-11-23T04:28:10.739Z,1.5
2017-11-23T04:29:29.392Z,1.5
2017-11-23T04:30:48.115Z,1.4
2017-11-23T04:32:06.805Z,1.3
2017-11-23T04:33:25.457Z,1.3
2017-11-23T04:34:44.125Z,1.2
2017-11-23T04:36:02.803Z,1.2
2017-11-23T04:37:21.524Z,1.2
2017-11-23T04:38:40.166Z,1.2
2017-11-23T04:39:58.813Z,1.4
2017-11-23T04:41:17.464Z,1.5
2017-11-23T04:42:36.118Z,1.5
2017-11-23T04:43:54.784Z,1.4
2017-11-23T04:45:13.428Z,1.3
2017-11-23T04:46:32.127Z,1.2
2017-11-23T04:47:50.768Z,1.2
2017-11-23T04:49:09.459Z,1.1
2017-11-23T04:50:28.095Z,1.1
2017-11-23T04:51:46.764Z,1.2
2017-11-23T04:53:05.415Z,1.2
2017-11-23T04:54:24.059Z,1.3
2017-11-23T04:55:42.697Z,1.3
2017-11-23T04:57:01.359Z,1.2
2017-11-23T04:58:20.004Z,1.3
2017-11-23T04:59:38.666Z,1.3
2017-11-23T05:00:57.311Z,1.2
2017-11-23T05:02:15.978Z,1.2
2017-11-23T05:03:34.624Z,1.2
2017-11-23T05:04:53.320Z,1.1
2017-11-23T05:06:11.965Z,1.2
2017-11-23T05:07:30.678Z,1.1
2017-11-23T05:08:49.328Z,1.1
2017-11-23T05:10:07.976Z,1.1
2017-11-23T05:11:26.669Z,1.1
2017-11-23T05:12:45.324Z,1
2017-11-23T05:14:04.007Z,1
2017-11-23T05:15:22.650Z,1
2017-11-23T05:16:41.328Z,1
2017-11-23T05:18:00.023Z,1
2017-11-23T05:19:18.711Z,1
2017-11-23T05:20:37.374Z,1
2017-11-23T05:21:56.037Z,1
2017-11-23T05:23:14.805Z,0.9
2017-11-23T05:24:33.446Z,0.8
2017-11-23T05:25:52.130Z,0.8
2017-11-23T05:27:10.767Z,0.8
2017-11-23T05:28:29.420Z,0.7
2017-11-23T05:29:48.063Z,0.8
2017-11-23T05:31:06.709Z,0.8
2017-11-23T05:32:25.352Z,0.8
2017-11-23T05:33:44.027Z,0.9
2017-11-23T05:35:02.669Z,0.9
2017-11-23T05:36:21.343Z,0.9
2017-11-23T05:37:39.992Z,0.9
2017-11-23T05:38:58.689Z,1.1
2017-11-23T05:40:17.363Z,1.1
2017-11-23T05:41:36.004Z,1.1
2017-11-23T05:42:54.731Z,1.1
2017-11-23T05:44:13.389Z,1.2
2017-11-23T05:45:32.064Z,1.3
2017-11-23T05:46:50.724Z,1.3
2017-11-23T05:48:09.372Z,1.3
2017-11-23T05:49:28.020Z,1.3
2017-11-23T05:50:46.675Z,1.3
2017-11-23T05:52:05.340Z,1.4
2017-11-23T05:53:24.005Z,1.6
2017-11-23T05:54:42.704Z,1.6
2017-11-23T05:56:01.377Z,1.5
2017-11-23T05:57:20.023Z,1.7
2017-11-23T05:58:38.676Z,1.7
2017-11-23T05:59:57.339Z,1.7
2017-11-23T06:01:16.029Z,1.9
2017-11-23T06:02:34.683Z,2
2017-11-23T06:03:53.338Z,2.1
2017-11-23T06:05:12.001Z,2
2017-11-23T06:06:30.670Z,1.8
2017-11-23T06:07:49.365Z,1.9
2017-11-23T06:09:08.061Z,1.9
2017-11-23T06:10:26.742Z,2
2017-11-23T06:11:45.390Z,1.9
2017-11-23T06:13:04.034Z,2
2017-11-23T06:14:22.664Z,2
2017-11-23T06:15:41.383Z,1.9
2017-11-23T06:17:00.039Z,1.8
2017-11-23T06:18:18.685Z,1.9
2017-11-23T06:19:37.377Z,1.8
2017-11-23T06:20:56.084Z,1.8
2017-11-23T06:22:14.785Z,1.8
2017-11-23T06:23:33.482Z,1.7
2017-11-23T06:24:52.132Z,1.9
2017-11-23T06:26:10.813Z,2
2017-11-23T06:27:29.529Z,1.9
2017-11-23T06:28:48.173Z,2
2017-11-23T06:30:06.858Z,2
2017-11-23T06:31:25.525Z,2
2017-11-23T06:32:44.207Z,2.1
2017-11-23T06:34:02.851Z,2
2017-11-23T06:35:21.536Z,2.1
2017-11-23T06:36:40.211Z,2.2
2017-11-23T06:37:58.847Z,2.1
2017-11-23T06:39:17.491Z,2.1
2017-11-23T06:40:36.191Z,2.1
2017-11-23T06:41:54.863Z,2
2017-11-23T06:43:13.560Z,2
2017-11-23T06:44:32.225Z,2
2017-11-23T06:45:50.906Z,2.1
2017-11-23T06:47:09.568Z,2.2
2017-11-23T06:48:28.215Z,2.2
2017-11-23T06:49:46.875Z,2.1
2017-11-23T06:51:05.529Z,2.1
2017-11-23T06:52:24.244Z,2.1
2017-11-23T06:53:42.893Z,2
2017-11-23T06:55:01.569Z,2.2
2017-11-23T06:56:20.227Z,2.2
2017-11-23T06:57:38.911Z,2.3
2017-11-23T06:58:57.602Z,2.4
2017-11-23T07:00:16.254Z,2.5
2017-11-23T07:01:34.895Z,2.5
2017-11-23T07:02:53.592Z,2.6
2017-11-23T07:04:12.242Z,2.9
2017-11-23T07:05:30.916Z,3
2017-11-23T07:06:49.573Z,3
2017-11-23T07:08:08.234Z,3
2017-11-23T07:09:26.906Z,3
2017-11-23T07:10:45.550Z,3
2017-11-23T07:12:04.208Z,3.1
2017-11-23T07:13:22.881Z,3.3
2017-11-23T07:14:41.579Z,3.2
2017-11-23T07:16:00.272Z,3.2
2017-11-23T07:17:18.925Z,3.2
2017-11-23T07:18:37.597Z,3.2
2017-11-23T07:19:56.288Z,3.1
2017-11-23T07:21:14.936Z,3.1
2017-11-23T07:22:33.594Z,3.2
2017-11-23T07:23:52.255Z,3.2
2017-11-23T07:25:10.922Z,3.3
2017-11-23T07:26:29.575Z,3.3
2017-11-23T07:27:48.253Z,3.3
2017-11-23T07:29:06.954Z,3.4
2017-11-23T07:30:25.643Z,3.5
2017-11-23T07:31:44.358Z,3.5
2017-11-23T07:33:03.011Z,3.4
2017-11-23T07:34:21.671Z,3.5
2017-11-23T07:35:40.321Z,3.6
2017-11-23T07:36:59.003Z,3.7
2017-11-23T07:38:17.648Z,3.8
2017-11-23T07:39:36.311Z,3.8
2017-11-23T07:40:54.953Z,3.8
2017-11-23T07:42:13.599Z,3.9
2017-11-23T07:43:32.263Z,4.2
2017-11-23T07:44:50.968Z,4.6
2017-11-23T07:46:09.646Z,4.6
2017-11-23T07:47:28.300Z,4.7
2017-11-23T07:48:46.944Z,4.7
2017-11-23T07:50:05.648Z,4.7
2017-11-23T07:51:24.294Z,4.7
2017-11-23T07:52:42.945Z,5
2017-11-23T07:54:01.595Z,5.2
2017-11-23T07:55:20.260Z,5.2
2017-11-23T07:56:38.915Z,5.1
2017-11-23T07:57:57.560Z,5.1
2017-11-23T07:59:16.217Z,5.2
2017-11-23T08:00:34.881Z,5.4
2017-11-23T08:01:53.529Z,5.4
2017-11-23T08:03:12.201Z,5.5
2017-11-23T08:04:30.874Z,5.5
2017-11-23T08:05:49.533Z,5.5
2017-11-23T08:07:08.183Z,5.7
2017-11-23T08:08:26.834Z,5.9
2017-11-23T08:09:45.494Z,6.2
2017-11-23T08:11:04.166Z,6.3
2017-11-23T08:12:22.811Z,6.6
2017-11-23T08:13:41.504Z,6.6
2017-11-23T08:15:00.158Z,6.6
2017-11-23T08:16:18.826Z,6.7
2017-11-23T08:17:37.511Z,6.9
2017-11-23T08:18:56.157Z,7
2017-11-23T08:20:14.828Z,7.1
2017-11-23T08:21:33.504Z,7.2
2017-11-23T08:22:52.148Z,7.3
2017-11-23T08:24:10.813Z,7.3
2017-11-23T08:25:29.458Z,7.5
2017-11-23T08:26:48.156Z,7.6
2017-11-23T08:28:06.807Z,7.6
2017-11-23T08:29:25.479Z,7.6
2017-11-23T08:30:44.132Z,7.7
2017-11-23T08:32:02.854Z,7.8
2017-11-23T08:33:21.499Z,7.8
2017-11-23T08:34:40.144Z,7.9
2017-11-23T08:35:58.839Z,7.9
2017-11-23T08:37:17.533Z,8
2017-11-23T08:38:36.189Z,8.1
2017-11-23T08:39:54.847Z,8.2
2017-11-23T08:41:13.515Z,8.3
2017-11-23T08:42:32.250Z,8.3
2017-11-23T08:43:50.953Z,8.3
2017-11-23T08:45:09.597Z,8.3
2017-11-23T08:46:28.255Z,8.3
2017-11-23T08:47:46.981Z,8.3
2017-11-23T08:49:05.693Z,8.3
2017-11-23T08:50:24.367Z,8.3
2017-11-23T08:51:43.042Z,8.2
2017-11-23T08:53:01.697Z,8.2
2017-11-23T08:54:20.362Z,8.3
2017-11-23T08:55:39.016Z,8.4
2017-11-23T08:56:57.657Z,8.4
2017-11-23T08:58:16.313Z,8.5
2017-11-23T08:59:34.966Z,8.6
2017-11-23T09:00:53.622Z,8.7
2017-11-23T09:02:12.277Z,8.8
2017-11-23T09:03:30.953Z,8.8
2017-11-23T09:04:49.599Z,8.8
2017-11-23T09:06:08.247Z,8.8
2017-11-23T09:07:26.934Z,8.8
2017-11-23T09:08:45.633Z,8.8
2017-11-23T09:10:04.284Z,8.7
2017-11-23T09:11:22.925Z,8.8
2017-11-23T09:12:41.583Z,8.7
2017-11-23T09:14:00.294Z,8.7
2017-11-23T09:15:18.949Z,8.7
2017-11-23T09:16:37.598Z,8.7
2017-11-23T09:17:56.248Z,8.7
2017-11-23T09:19:15.192Z,8.7
2017-11-23T09:20:33.847Z,8.7
2017-11-23T09:21:52.530Z,8.8
2017-11-23T09:23:11.178Z,8.8
2017-11-23T09:24:29.862Z,8.7
2017-11-23T09:25:48.504Z,8.8
2017-11-23T09:27:07.157Z,8.8
2017-11-23T09:28:25.812Z,8.8
2017-11-23T09:29:44.477Z,8.7
2017-11-23T09:31:03.177Z,8.7
2017-11-23T09:32:21.829Z,8.6
2017-11-23T09:33:40.534Z,8.6
2017-11-23T09:34:59.475Z,8.6
2017-11-23T09:36:18.122Z,8.6
2017-11-23T09:37:36.780Z,8.5
2017-11-23T09:38:55.492Z,8.5
2017-11-23T09:40:14.152Z,8.5
2017-11-23T09:41:32.795Z,8.6
2017-11-23T09:42:51.440Z,8.6
2017-11-23T09:44:10.104Z,8.6
2017-11-23T09:45:28.778Z,8.6
2017-11-23T09:46:47.427Z,8.6
2017-11-23T09:48:06.082Z,8.7
2017-11-23T09:49:24.729Z,8.8
2017-11-23T09:50:43.406Z,8.9
2017-11-23T09:52:02.071Z,9
2017-11-23T09:53:20.739Z,9.1
2017-11-23T09:54:39.384Z,9.1
2017-11-23T09:55:58.071Z,9.2
2017-11-23T09:57:16.713Z,9.3
2017-11-23T09:58:35.394Z,9.4
2017-11-23T09:59:54.032Z,9.4
2017-11-23T10:01:12.727Z,9.4
2017-11-23T10:02:31.420Z,9.4
2017-11-23T10:03:50.098Z,9.4
2017-11-23T10:05:08.739Z,9.3
2017-11-23T10:06:27.408Z,9.3
2017-11-23T10:07:46.107Z,9.3
2017-11-23T10:09:04.801Z,9.3
2017-11-23T10:10:23.473Z,9.3
2017-11-23T10:11:42.138Z,9.2
2017-11-23T10:13:00.853Z,9.2
2017-11-23T10:14:19.537Z,9.2
2017-11-23T10:15:38.209Z,9.2
2017-11-23T10:16:56.898Z,9.2
2017-11-23T10:18:15.549Z,9.1
2017-11-23T10:19:34.195Z,9.1
2017-11-23T10:20:52.839Z,9.1
2017-11-23T10:22:11.561Z,9.1
2017-11-23T10:23:30.238Z,9.1
2017-11-23T10:24:48.939Z,9.1
2017-11-23T10:26:07.592Z,9.1
2017-11-23T10:27:26.289Z,9.3
2017-11-23T10:28:44.948Z,9.3
2017-11-23T10:30:03.591Z,9.4
2017-11-23T10:31:22.277Z,9.5
2017-11-23T10:32:40.937Z,9.5
2017-11-23T10:33:59.585Z,9.5
2017-11-23T10:35:18.239Z,9.5
2017-11-23T10:36:36.935Z,9.6
2017-11-23T10:37:55.662Z,9.6
2017-11-23T10:39:14.330Z,9.5
2017-11-23T10:40:32.978Z,9.6
2017-11-23T10:41:51.632Z,9.7
2017-11-23T10:43:10.304Z,9.8
2017-11-23T10:44:28.974Z,9.8
2017-11-23T10:45:47.617Z,9.9
2017-11-23T10:47:06.290Z,10.1
2017-11-23T10:48:25.000Z,10.2
2017-11-23T10:49:43.669Z,10.3
2017-11-23T10:51:02.378Z,10.3
2017-11-23T10:52:21.042Z,10.4
2017-11-23T10:53:39.735Z,10.5
2017-11-23T10:54:58.441Z,10.5
2017-11-23T10:56:17.124Z,10.6
2017-11-23T10:57:35.786Z,10.5
2017-11-23T10:58:54.518Z,10.5
2017-11-23T11:00:13.237Z,10.5
2017-11-23T11:01:31.962Z,10.5
2017-11-23T11:02:50.640Z,10.5
2017-11-23T11:04:09.365Z,10.5
2017-11-23T11:05:28.025Z,10.4
2017-11-23T11:06:46.693Z,10.3
2017-11-23T11:08:05.360Z,10.2
2017-11-23T11:09:24.039Z,10.1
2017-11-23T11:10:42.711Z,10.1
2017-11-23T11:12:01.404Z,10
2017-11-23T11:13:20.113Z,10
2017-11-23T11:14:38.813Z,10
2017-11-23T11:15:57.519Z,10
2017-11-23T11:17:16.222Z,10
2017-11-23T11:18:34.914Z,10
2017-11-23T11:19:53.640Z,10
2017-11-23T11:21:12.299Z,10.1
2017-11-23T11:22:30.985Z,10.1
2017-11-23T11:23:49.653Z,10.2
2017-11-23T11:25:08.369Z,10.3
2017-11-23T11:26:27.039Z,10.3
2017-11-23T11:27:45.704Z,10.4
2017-11-23T11:29:04.417Z,10.4
2017-11-23T11:30:23.101Z,10.4
2017-11-23T11:31:41.768Z,10.3
2017-11-23T11:33:00.430Z,10.3
2017-11-23T11:34:19.130Z,10.3
2017-11-23T11:35:37.812Z,10.3
2017-11-23T11:36:56.495Z,10.3
2017-11-23T11:38:15.197Z,10.3
2017-11-23T11:39:33.890Z,10.3
2017-11-23T11:40:52.582Z,10.3
2017-11-23T11:42:11.291Z,10.4
2017-11-23T11:43:29.976Z,10.3
2017-11-23T11:44:48.651Z,10.3
2017-11-23T11:46:07.339Z,10.3
2017-11-23T11:47:26.014Z,10.3
2017-11-23T11:48:44.749Z,10.3
2017-11-23T11:50:03.460Z,10.3
2017-11-23T11:51:22.184Z,10.3
2017-11-23T11:52:40.847Z,10.3
2017-11-23T11:53:59.521Z,10.4
2017-11-23T11:55:18.212Z,10.3
2017-11-23T11:56:36.899Z,10.3
2017-11-23T11:57:55.624Z,10.2
2017-11-23T11:59:14.340Z,10.2
2017-11-23T12:00:33.029Z,10.2
2017-11-23T12:01:51.717Z,10.3
2017-11-23T12:03:10.378Z,10.3
2017-11-23T12:04:29.040Z,10.4
2017-11-23T12:05:47.756Z,10.4
2017-11-23T12:07:06.442Z,10.4
2017-11-23T12:08:25.105Z,10.4
2017-11-23T12:09:43.760Z,10.3
2017-11-23T12:11:02.454Z,10.2
2017-11-23T12:12:21.152Z,10.2
2017-11-23T12:13:39.854Z,10.2
2017-11-23T12:14:58.515Z,10.3
2017-11-23T12:16:17.175Z,10.4
2017-11-23T12:17:35.857Z,10.4
2017-11-23T12:18:54.574Z,10.4
2017-11-23T12:20:13.253Z,10.3
2017-11-23T12:21:31.922Z,10.3
2017-11-23T12:22:50.607Z,10.2
2017-11-23T12:24:09.310Z,10.2
2017-11-23T12:25:28.044Z,10.2
2017-11-23T12:26:46.711Z,10.2
2017-11-23T12:28:05.393Z,10.3
2017-11-23T12:29:24.063Z,10.7
2017-11-23T12:30:42.728Z,10.6
2017-11-23T12:32:01.393Z,10.5
2017-11-23T12:33:20.066Z,10.4
2017-11-23T12:34:38.737Z,10.3
2017-11-23T12:35:57.407Z,10.3
2017-11-23T12:37:16.072Z,10.2
2017-11-23T12:38:34.776Z,10.1
2017-11-23T12:39:53.434Z,10.1
2017-11-23T12:41:12.103Z,10
2017-11-23T12:42:30.757Z,9.9
2017-11-23T12:43:49.455Z,9.8
2017-11-23T12:45:08.096Z,9.8
2017-11-23T12:46:26.769Z,9.8
2017-11-23T12:47:45.453Z,9.8
2017-11-23T12:49:04.175Z,9.7
2017-11-23T12:50:22.875Z,9.7
2017-11-23T12:51:41.541Z,12.7
2017-11-23T12:53:00.206Z,15.1
2017-11-23T12:54:18.938Z,16.1
2017-11-23T12:55:37.616Z,16.7
2017-11-23T12:56:56.322Z,17.1
2017-11-23T12:58:14.988Z,17.6
2017-11-23T12:59:33.728Z,18.1
2017-11-23T13:00:52.392Z,17.6
2017-11-23T13:02:11.052Z,18.2
2017-11-23T13:03:29.712Z,18.2
2017-11-23T13:04:48.381Z,16.4
2017-11-23T13:06:07.042Z,14.2
2017-11-23T13:07:25.707Z,12.5
2017-11-23T13:08:44.387Z,11.6
2017-11-23T13:10:03.110Z,11.2
2017-11-23T13:11:21.799Z,10.9
2017-11-23T13:12:40.467Z,10.7
2017-11-23T13:13:59.126Z,10.5
2017-11-23T13:15:17.881Z,10.3
2017-11-23T13:16:36.549Z,10.2
2017-11-23T13:17:55.224Z,10.2
2017-11-23T13:19:13.881Z,10.1
2017-11-23T13:20:32.544Z,10.1
2017-11-23T13:21:51.222Z,10
2017-11-23T13:23:09.889Z,10
2017-11-23T13:24:28.594Z,10
2017-11-23T13:25:47.279Z,10
2017-11-23T13:27:05.974Z,9.9
2017-11-23T13:28:24.618Z,9.9
2017-11-23T13:29:43.278Z,10
2017-11-23T13:31:01.950Z,9.9
2017-11-23T13:32:20.604Z,9.9
2017-11-23T13:33:39.333Z,9.9
2017-11-23T13:34:58.033Z,9.9
2017-11-23T13:36:16.680Z,9.9
2017-11-23T13:37:35.334Z,9.9
2017-11-23T13:38:53.999Z,9.9
2017-11-23T13:40:12.696Z,9.9
2017-11-23T13:41:31.396Z,9.8
2017-11-23T13:42:50.081Z,9.8
2017-11-23T13:44:08.729Z,9.8
2017-11-23T13:45:27.420Z,9.8
2017-11-23T13:46:46.094Z,9.7
2017-11-23T13:48:04.782Z,9.7
2017-11-23T13:49:23.423Z,9.7
2017-11-23T13:50:42.069Z,9.7
2017-11-23T13:52:00.720Z,9.7
2017-11-23T13:53:19.395Z,9.7
2017-11-23T13:54:38.042Z,9.7
2017-11-23T13:55:56.719Z,9.7
2017-11-23T13:57:15.411Z,9.6
2017-11-23T13:58:34.129Z,9.6
2017-11-23T13:59:52.770Z,9.6
2017-11-23T14:01:11.462Z,9.5
2017-11-23T14:02:30.155Z,9.5
2017-11-23T14:03:48.797Z,9.5
2017-11-23T14:05:07.477Z,9.5
2017-11-23T14:06:26.120Z,9.5
2017-11-23T14:07:44.815Z,9.5
2017-11-23T14:09:03.523Z,9.5
2017-11-23T14:10:22.186Z,9.4
2017-11-23T14:11:40.892Z,9.4
2017-11-23T14:12:59.587Z,9.5
2017-11-23T14:14:18.304Z,9.5
2017-11-23T14:15:36.979Z,9.5
2017-11-23T14:16:55.627Z,9.5
2017-11-23T14:18:14.325Z,9.4
2017-11-23T14:19:32.974Z,9.4
2017-11-23T14:20:51.616Z,9.3
2017-11-23T14:22:10.263Z,9.3
2017-11-23T14:23:28.909Z,9.3
2017-11-23T14:24:47.576Z,9.5
2017-11-23T14:26:06.226Z,9.4
2017-11-23T14:27:24.912Z,9.5
2017-11-23T14:28:43.636Z,9.5
2017-11-23T14:30:02.338Z,9.4
2017-11-23T14:31:20.990Z,9.3
2017-11-23T14:32:39.642Z,9.3
2017-11-23T14:33:58.312Z,9.4
2017-11-23T14:35:16.959Z,9.3
2017-11-23T14:36:35.604Z,9.2
2017-11-23T14:37:54.277Z,9.3
2017-11-23T14:39:12.950Z,9.4
2017-11-23T14:40:31.598Z,9.4
2017-11-23T14:41:50.255Z,9.2
2017-11-23T14:43:08.919Z,9.1
2017-11-23T14:44:27.576Z,9.1
2017-11-23T14:45:46.226Z,9.1
2017-11-23T14:47:04.890Z,9
2017-11-23T14:48:23.530Z,8.9
2017-11-23T14:49:42.202Z,8.9
2017-11-23T14:51:00.845Z,8.8
2017-11-23T14:52:19.499Z,8.7
2017-11-23T14:53:38.195Z,8.6
2017-11-23T14:54:56.853Z,8.6
2017-11-23T14:56:15.502Z,8.6
2017-11-23T14:57:34.211Z,8.6
2017-11-23T14:58:52.865Z,8.6
2017-11-23T15:00:11.570Z,8.5
2017-11-23T15:01:30.253Z,8.4
2017-11-23T15:02:48.920Z,8.5
2017-11-23T15:04:07.608Z,8.6
2017-11-23T15:05:26.327Z,8.6
2017-11-23T15:06:44.989Z,8.6
2017-11-23T15:08:03.649Z,8.6
2017-11-23T15:09:22.368Z,8.5
2017-11-23T15:10:41.050Z,8.6
2017-11-23T15:11:59.696Z,8.8
2017-11-23T15:13:18.342Z,9.1
2017-11-23T15:14:37.011Z,9.2
2017-11-23T15:15:55.678Z,9.3
2017-11-23T15:17:14.322Z,9.3
2017-11-23T15:18:32.972Z,9.3
2017-11-23T15:19:51.678Z,9.4
2017-11-23T15:21:10.350Z,9.5
2017-11-23T15:22:29.024Z,9.5
2017-11-23T15:23:47.673Z,9.5
2017-11-23T15:25:06.313Z,9.5
2017-11-23T15:26:25.003Z,9.5
2017-11-23T15:27:43.652Z,9.5
2017-11-23T15:29:02.307Z,9.6
2017-11-23T15:30:20.950Z,9.7
2017-11-23T15:31:39.614Z,9.7
2017-11-23T15:32:58.260Z,9.7
2017-11-23T15:34:16.918Z,9.8
2017-11-23T15:35:35.556Z,9.8
2017-11-23T15:36:54.266Z,9.8
2017-11-23T15:38:12.907Z,9.8
2017-11-23T15:39:31.548Z,9.7
2017-11-23T15:40:50.195Z,9.9
2017-11-23T15:42:08.899Z,9.9
2017-11-23T15:43:27.544Z,9.9
2017-11-23T15:44:46.187Z,9.8
2017-11-23T15:46:04.844Z,9.8
2017-11-23T15:47:23.546Z,9.7
2017-11-23T15:48:42.226Z,9.7
2017-11-23T15:50:00.906Z,9.7
2017-11-23T15:51:19.610Z,9.6
2017-11-23T15:52:38.294Z,9.5
2017-11-23T15:53:56.943Z,9.5
2017-11-23T15:55:15.596Z,9.5
2017-11-23T15:56:34.254Z,9.5
2017-11-23T15:57:52.936Z,9.4
2017-11-23T15:59:11.599Z,9.4
2017-11-23T16:00:30.244Z,9.4
2017-11-23T16:01:48.961Z,9.4
2017-11-23T16:03:07.625Z,9.4
2017-11-23T16:04:26.286Z,9.4
2017-11-23T16:05:44.935Z,9.4
2017-11-23T16:07:03.651Z,9.3
2017-11-23T16:08:22.327Z,9.3
2017-11-23T16:09:40.976Z,9.3
2017-11-23T16:10:59.624Z,9.3
2017-11-23T16:12:18.268Z,9.3
2017-11-23T16:13:36.972Z,9.3
2017-11-23T16:14:55.657Z,9.2
2017-11-23T16:16:14.319Z,9.2
2017-11-23T16:17:32.975Z,9.2
2017-11-23T16:18:51.644Z,9.2
2017-11-23T16:20:10.305Z,9.3
2017-11-23T16:21:28.965Z,9.3
2017-11-23T16:22:47.642Z,9.4
2017-11-23T16:24:06.334Z,9.4
2017-11-23T16:25:24.983Z,9.3
2017-11-23T16:26:43.695Z,9.2
2017-11-23T16:28:02.352Z,9.1
2017-11-23T16:29:21.021Z,8.8
2017-11-23T16:30:39.670Z,8.6
2017-11-23T16:31:58.317Z,8.4
2017-11-23T16:33:17.022Z,8.3
2017-11-23T16:34:35.741Z,8.2
2017-11-23T16:35:54.444Z,8.2
2017-11-23T16:37:13.103Z,8.3
2017-11-23T16:38:31.754Z,8.3
2017-11-23T16:39:50.435Z,8.4
2017-11-23T16:41:09.080Z,8.3
2017-11-23T16:42:27.769Z,8.3
2017-11-23T16:43:46.423Z,8.3
2017-11-23T16:45:05.081Z,8.2
2017-11-23T16:46:23.736Z,8.2
2017-11-23T16:47:42.377Z,8.1
2017-11-23T16:49:01.072Z,8.1
2017-11-23T16:50:19.754Z,8
2017-11-23T16:51:38.505Z,8.2
2017-11-23T16:52:57.147Z,8.5
2017-11-23T16:54:15.803Z,8.5
2017-11-23T16:55:34.488Z,8.7
2017-11-23T16:56:53.134Z,8.8
2017-11-23T16:58:11.829Z,8.8
2017-11-23T16:59:30.488Z,8.9
2017-11-23T17:00:49.153Z,9.2
2017-11-23T17:02:07.806Z,9.3
2017-11-23T17:03:26.456Z,9.2
2017-11-23T17:04:45.147Z,9.2
2017-11-23T17:06:03.800Z,9.2
2017-11-23T17:07:22.443Z,9.2
2017-11-23T17:08:41.088Z,9.3
2017-11-23T17:09:59.741Z,9.3
2017-11-23T17:11:18.445Z,9.3
2017-11-23T17:12:37.103Z,9.4
2017-11-23T17:13:55.786Z,9.4
2017-11-23T17:15:14.434Z,9.5
2017-11-23T17:16:33.108Z,9.5
2017-11-23T17:17:51.849Z,9.5
2017-11-23T17:19:10.502Z,9.5
2017-11-23T17:20:29.202Z,9.6
2017-11-23T17:21:47.877Z,9.6
2017-11-23T17:23:06.534Z,9.6
2017-11-23T17:24:25.230Z,9.7
2017-11-23T17:25:43.876Z,9.7
2017-11-23T17:27:02.557Z,9.7
2017-11-23T17:28:21.212Z,9.7
2017-11-23T17:29:39.919Z,9.7
2017-11-23T17:30:58.598Z,9.8
2017-11-23T17:32:17.254Z,9.9
2017-11-23T17:33:35.893Z,9.9
2017-11-23T17:34:54.542Z,9.8
2017-11-23T17:36:13.279Z,9.8
2017-11-23T17:37:31.973Z,9.8
2017-11-23T17:38:50.680Z,9.9
2017-11-23T17:40:09.345Z,9.9
2017-11-23T17:41:27.995Z,9.9
2017-11-23T17:42:46.744Z,9.9
2017-11-23T17:44:05.422Z,9.9
2017-11-23T17:45:24.096Z,9.8
2017-11-23T17:46:42.739Z,9.8
2017-11-23T17:48:01.418Z,9.7
2017-11-23T17:49:20.095Z,9.7
2017-11-23T17:50:38.750Z,9.8
2017-11-23T17:51:57.412Z,9.7
2017-11-23T17:53:16.135Z,9.8
2017-11-23T17:54:34.822Z,9.8
2017-11-23T17:55:53.513Z,9.9
2017-11-23T17:57:12.193Z,10
2017-11-23T17:58:30.882Z,10
2017-11-23T17:59:49.591Z,9.9
2017-11-23T18:01:08.261Z,9.9
2017-11-23T18:02:26.962Z,9.9
2017-11-23T18:03:45.644Z,9.9